JAI304 VOBL-VOBL
Flight info
| Callsign | JAI304 |
|---|---|
| Flight time | N/A |
| Altitude | 12000 |
| Route | BL961 DCT BL109 DCT BL454 DCT BL553 DCT BL962 |
| Aircraft | A339/H-SADE1E2E3GHIJ3J5M1P2RWXY/LB2D1 |
Departure
| Time | 2026-04-29 16:44 |
|---|---|
| Airport | Kempegowda International Airport Bengaluru (VOBL) |
Arrival
| Time | N/A |
|---|---|
| Airport | Kempegowda International Airport Bengaluru (VOBL) |
| Time | Latitude | Longitude | Altitude | Speed | Heading |
|---|---|---|---|---|---|
| 2026-04-29 16:34 | 13.20361 | 77.69491 | 3017 ft | 0 kts | 0° |
| 2026-04-29 16:38 | 13.20358 | 77.69491 | 3017 ft | 3 kts | 0° |
| 2026-04-29 16:38 | 13.20331 | 77.69492 | 3017 ft | 4 kts | 357° |
| 2026-04-29 16:39 | 13.20306 | 77.69492 | 3020 ft | 4 kts | 346° |
| 2026-04-29 16:39 | 13.20286 | 77.69498 | 3025 ft | 4 kts | 302° |
| 2026-04-29 16:39 | 13.20276 | 77.69520 | 3024 ft | 4 kts | 274° |
| 2026-04-29 16:39 | 13.20275 | 77.69530 | 3024 ft | 0 kts | 270° |
| 2026-04-29 16:41 | 13.20275 | 77.69512 | 3024 ft | 6 kts | 270° |
| 2026-04-29 16:41 | 13.20276 | 77.69446 | 3017 ft | 12 kts | 270° |
| 2026-04-29 16:41 | 13.20288 | 77.69350 | 3020 ft | 12 kts | 299° |
| 2026-04-29 16:42 | 13.20349 | 77.69335 | 3017 ft | 9 kts | 1° |
| 2026-04-29 16:42 | 13.20431 | 77.69332 | 3017 ft | 14 kts | 359° |
| 2026-04-29 16:42 | 13.20521 | 77.69317 | 3017 ft | 10 kts | 323° |
| 2026-04-29 16:42 | 13.20547 | 77.69244 | 3017 ft | 13 kts | 283° |
| 2026-04-29 16:43 | 13.20592 | 77.69206 | 3017 ft | 9 kts | 347° |
| 2026-04-29 16:43 | 13.20676 | 77.69208 | 3017 ft | 16 kts | 14° |
| 2026-04-29 16:43 | 13.20715 | 77.69272 | 3017 ft | 11 kts | 76° |
| 2026-04-29 16:43 | 13.20713 | 77.69395 | 3017 ft | 48 kts | 90° |
| 2026-04-29 16:44 | 13.20704 | 77.70122 | 3018 ft | 151 kts | 91° |
| 2026-04-29 16:44 | 13.20733 | 77.71432 | 3343 ft | 196 kts | 90° |
| 2026-04-29 16:44 | 13.20818 | 77.72796 | 4192 ft | 194 kts | 88° |
| 2026-04-29 16:44 | 13.20936 | 77.74220 | 4898 ft | 208 kts | 90° |
| 2026-04-29 16:45 | 13.21030 | 77.75770 | 5427 ft | 228 kts | 90° |
| 2026-04-29 16:45 | 13.21106 | 77.77485 | 5840 ft | 252 kts | 89° |
| 2026-04-29 16:45 | 13.21192 | 77.79371 | 5968 ft | 274 kts | 86° |
| 2026-04-29 16:45 | 13.21789 | 77.81203 | 5995 ft | 265 kts | 61° |
| 2026-04-29 16:46 | 13.23010 | 77.82497 | 5998 ft | 245 kts | 34° |
| 2026-04-29 16:46 | 13.24587 | 77.83033 | 6000 ft | 245 kts | 6° |
| 2026-04-29 16:46 | 13.26308 | 77.82993 | 5998 ft | 245 kts | 359° |
| 2026-04-29 16:46 | 13.28006 | 77.82918 | 5993 ft | 245 kts | 356° |
| 2026-04-29 16:47 | 13.29627 | 77.82367 | 5998 ft | 249 kts | 328° |
| 2026-04-29 16:47 | 13.30815 | 77.81108 | 6002 ft | 247 kts | 298° |
| 2026-04-29 16:47 | 13.31278 | 77.79447 | 6004 ft | 242 kts | 270° |
| 2026-04-29 16:47 | 13.31307 | 77.77717 | 6001 ft | 244 kts | 269° |
| 2026-04-29 16:48 | 13.31338 | 77.75976 | 6001 ft | 242 kts | 268° |
| 2026-04-29 16:48 | 13.31380 | 77.74248 | 5995 ft | 243 kts | 269° |
| 2026-04-29 16:48 | 13.31412 | 77.72513 | 6000 ft | 243 kts | 268° |
| 2026-04-29 16:48 | 13.31456 | 77.70800 | 5998 ft | 244 kts | 269° |
| 2026-04-29 16:49 | 13.31495 | 77.69059 | 6001 ft | 243 kts | 268° |
| 2026-04-29 16:49 | 13.31538 | 77.67331 | 6000 ft | 243 kts | 269° |
| 2026-04-29 16:49 | 13.31573 | 77.65594 | 5999 ft | 243 kts | 269° |
| 2026-04-29 16:49 | 13.31608 | 77.63859 | 6001 ft | 243 kts | 269° |
| 2026-04-29 16:50 | 13.31648 | 77.62127 | 6002 ft | 242 kts | 269° |
| 2026-04-29 16:50 | 13.31684 | 77.60394 | 6002 ft | 244 kts | 269° |
| 2026-04-29 16:50 | 13.31724 | 77.58662 | 6000 ft | 241 kts | 269° |
| 2026-04-29 16:50 | 13.31765 | 77.56938 | 6004 ft | 243 kts | 269° |
| 2026-04-29 16:51 | 13.31813 | 77.55218 | 6002 ft | 239 kts | 269° |
| 2026-04-29 16:51 | 13.31860 | 77.53505 | 6005 ft | 242 kts | 268° |
| 2026-04-29 16:51 | 13.31908 | 77.51775 | 6003 ft | 242 kts | 269° |
| 2026-04-29 16:51 | 13.31964 | 77.50058 | 6005 ft | 241 kts | 269° |
| 2026-04-29 16:52 | 13.32024 | 77.48331 | 6004 ft | 241 kts | 269° |
| 2026-04-29 16:52 | 13.31819 | 77.46664 | 6011 ft | 232 kts | 246° |
| 2026-04-29 16:52 | 13.30951 | 77.45401 | 6004 ft | 205 kts | 216° |
| 2026-04-29 16:52 | 13.29720 | 77.44878 | 6009 ft | 190 kts | 183° |
| 2026-04-29 16:53 | 13.28371 | 77.44855 | 6009 ft | 193 kts | 178° |
| 2026-04-29 16:53 | 13.27036 | 77.44848 | 6005 ft | 190 kts | 178° |
| 2026-04-29 16:53 | 13.25782 | 77.44848 | 6005 ft | 191 kts | 177° |
| 2026-04-29 16:53 | 13.24931 | 77.45050 | 6015 ft | 189 kts | 155° |
| 2026-04-29 16:54 | 13.23758 | 77.46338 | 6016 ft | 193 kts | 118° |
| 2026-04-29 16:54 | 13.23148 | 77.47590 | 6015 ft | 193 kts | 118° |
| 2026-04-29 16:54 | 13.22755 | 77.48404 | 6005 ft | 192 kts | 118° |
| 2026-04-29 16:54 | 13.22160 | 77.49634 | 6003 ft | 194 kts | 118° |
| 2026-04-29 16:55 | 13.21556 | 77.50867 | 6003 ft | 193 kts | 118° |
| 2026-04-29 16:55 | 13.21077 | 77.52162 | 6002 ft | 195 kts | 107° |
| 2026-04-29 16:55 | 13.20877 | 77.53549 | 5867 ft | 197 kts | 97° |
| 2026-04-29 16:55 | 13.20834 | 77.54954 | 5606 ft | 195 kts | 93° |
| 2026-04-29 16:56 | 13.20829 | 77.56336 | 5355 ft | 194 kts | 95° |
| 2026-04-29 16:56 | 13.20809 | 77.57728 | 5110 ft | 194 kts | 95° |
| 2026-04-29 16:56 | 13.20800 | 77.59091 | 4868 ft | 188 kts | 95° |
| 2026-04-29 16:56 | 13.20789 | 77.60372 | 4647 ft | 195 kts | 96° |
| 2026-04-29 16:57 | 13.20764 | 77.61943 | 4558 ft | 238 kts | 94° |
| 2026-04-29 16:57 | 13.20736 | 77.63561 | 4287 ft | 219 kts | 94° |
| 2026-04-29 16:57 | 13.20691 | 77.65093 | 3954 ft | 206 kts | 93° |
| 2026-04-29 16:57 | 13.20714 | 77.66518 | 3502 ft | 195 kts | 90° |
| 2026-04-29 16:58 | 13.20736 | 77.67865 | 3192 ft | 185 kts | 92° |
| 2026-04-29 16:58 | 13.20724 | 77.69169 | 3021 ft | 173 kts | 92° |
| 2026-04-29 16:58 | 13.20704 | 77.70336 | 3018 ft | 169 kts | 90° |
| 2026-04-29 16:58 | 13.20704 | 77.71730 | 3280 ft | 215 kts | 92° |
| 2026-04-29 16:59 | 13.20729 | 77.73312 | 3845 ft | 227 kts | 90° |
| 2026-04-29 16:59 | 13.20790 | 77.74989 | 4365 ft | 243 kts | 91° |
| 2026-04-29 16:59 | 13.20721 | 77.76797 | 4745 ft | 263 kts | 97° |
| 2026-04-29 16:59 | 13.20557 | 77.78686 | 5396 ft | 267 kts | 97° |
| 2026-04-29 17:00 | 13.20402 | 77.80598 | 5820 ft | 272 kts | 96° |
| 2026-04-29 17:00 | 13.20337 | 77.82559 | 6172 ft | 280 kts | 86° |
| 2026-04-29 17:00 | 13.20911 | 77.84445 | 6703 ft | 271 kts | 62° |
| 2026-04-29 17:00 | 13.22093 | 77.85796 | 6886 ft | 241 kts | 36° |
| 2026-04-29 17:01 | 13.23588 | 77.86343 | 6978 ft | 221 kts | 6° |
| 2026-04-29 17:01 | 13.25076 | 77.86200 | 7005 ft | 218 kts | 350° |
| 2026-04-29 17:01 | 13.26561 | 77.85831 | 6993 ft | 218 kts | 347° |
| 2026-04-29 17:01 | 13.28015 | 77.85420 | 7001 ft | 217 kts | 346° |
| 2026-04-29 17:02 | 13.29463 | 77.85004 | 7001 ft | 219 kts | 346° |
| 2026-04-29 17:02 | 13.30933 | 77.84578 | 7001 ft | 218 kts | 346° |
| 2026-04-29 17:02 | 13.32369 | 77.84092 | 6995 ft | 219 kts | 334° |
| 2026-04-29 17:02 | 13.33532 | 77.82995 | 7012 ft | 246 kts | 303° |
| 2026-04-29 17:03 | 13.34110 | 77.81316 | 7005 ft | 253 kts | 274° |
| 2026-04-29 17:03 | 13.34057 | 77.79521 | 7002 ft | 249 kts | 263° |
| 2026-04-29 17:03 | 13.33919 | 77.77749 | 7000 ft | 248 kts | 263° |
| 2026-04-29 17:03 | 13.33782 | 77.75986 | 7004 ft | 248 kts | 264° |
| 2026-04-29 17:04 | 13.33642 | 77.74213 | 7001 ft | 249 kts | 264° |
| 2026-04-29 17:04 | 13.33504 | 77.72435 | 7000 ft | 248 kts | 263° |
| 2026-04-29 17:04 | 13.33375 | 77.70696 | 6999 ft | 247 kts | 264° |
| 2026-04-29 17:04 | 13.33247 | 77.68942 | 7001 ft | 246 kts | 263° |
| 2026-04-29 17:05 | 13.33122 | 77.67184 | 7005 ft | 246 kts | 264° |
| 2026-04-29 17:05 | 13.32986 | 77.65430 | 7004 ft | 245 kts | 262° |
| 2026-04-29 17:05 | 13.32820 | 77.63687 | 7002 ft | 245 kts | 262° |
| 2026-04-29 17:05 | 13.32650 | 77.61956 | 7004 ft | 244 kts | 262° |
| 2026-04-29 17:06 | 13.32484 | 77.60217 | 7003 ft | 245 kts | 262° |
| 2026-04-29 17:06 | 13.32326 | 77.58466 | 7000 ft | 244 kts | 262° |
| 2026-04-29 17:06 | 13.32173 | 77.56733 | 7002 ft | 244 kts | 262° |
| 2026-04-29 17:06 | 13.32023 | 77.55019 | 7004 ft | 234 kts | 262° |
| 2026-04-29 17:07 | 13.31888 | 77.53430 | 7003 ft | 214 kts | 262° |
| 2026-04-29 17:07 | 13.31755 | 77.51897 | 7004 ft | 216 kts | 262° |
| 2026-04-29 17:07 | 13.31622 | 77.50395 | 7007 ft | 213 kts | 262° |
| 2026-04-29 17:07 | 13.31486 | 77.48870 | 7009 ft | 215 kts | 262° |
| 2026-04-29 17:08 | 13.31280 | 77.47367 | 6995 ft | 210 kts | 248° |
| 2026-04-29 17:08 | 13.30491 | 77.46131 | 6998 ft | 207 kts | 218° |
| 2026-04-29 17:08 | 13.29236 | 77.45520 | 6912 ft | 198 kts | 189° |
| 2026-04-29 17:08 | 13.27868 | 77.45436 | 6630 ft | 198 kts | 176° |
| 2026-04-29 17:09 | 13.26499 | 77.45547 | 6316 ft | 198 kts | 173° |
| 2026-04-29 17:09 | 13.25131 | 77.45677 | 6084 ft | 194 kts | 174° |
| 2026-04-29 17:09 | 13.23791 | 77.45764 | 6014 ft | 197 kts | 175° |
| 2026-04-29 17:09 | 13.22454 | 77.45894 | 5983 ft | 194 kts | 164° |
| 2026-04-29 17:10 | 13.21338 | 77.46672 | 5999 ft | 197 kts | 127° |
| 2026-04-29 17:10 | 13.20909 | 77.48017 | 5991 ft | 204 kts | 99° |
| 2026-04-29 17:10 | 13.20864 | 77.49478 | 5985 ft | 204 kts | 91° |
| 2026-04-29 17:10 | 13.20880 | 77.50932 | 5987 ft | 204 kts | 93° |
| 2026-04-29 17:11 | 13.20858 | 77.52389 | 5973 ft | 204 kts | 93° |
| 2026-04-29 17:11 | 13.20847 | 77.53848 | 5788 ft | 204 kts | 93° |
| 2026-04-29 17:11 | 13.20835 | 77.55299 | 5519 ft | 203 kts | 94° |
| 2026-04-29 17:11 | 13.20821 | 77.56733 | 5260 ft | 200 kts | 94° |
| 2026-04-29 17:12 | 13.20807 | 77.58136 | 5016 ft | 188 kts | 94° |
| 2026-04-29 17:12 | 13.20801 | 77.59422 | 4793 ft | 172 kts | 95° |
| 2026-04-29 17:12 | 13.20788 | 77.60593 | 4574 ft | 156 kts | 96° |
| 2026-04-29 17:12 | 13.20781 | 77.61308 | 4437 ft | 145 kts | 96° |
| 2026-04-29 17:13 | 13.20765 | 77.62669 | 4202 ft | 144 kts | 95° |
| 2026-04-29 17:13 | 13.20753 | 77.63654 | 3957 ft | 137 kts | 95° |
| 2026-04-29 17:13 | 13.20729 | 77.64664 | 3716 ft | 145 kts | 94° |
| 2026-04-29 17:13 | 13.20737 | 77.65687 | 3472 ft | 143 kts | 92° |
| 2026-04-29 17:14 | 13.20737 | 77.66717 | 3361 ft | 144 kts | 92° |
| 2026-04-29 17:14 | 13.20753 | 77.67765 | 3217 ft | 152 kts | 91° |
| 2026-04-29 17:14 | 13.20738 | 77.68855 | 3034 ft | 150 kts | 96° |
| 2026-04-29 17:14 | 13.20706 | 77.69857 | 3018 ft | 127 kts | 92° |
| 2026-04-29 17:15 | 13.20698 | 77.70593 | 3017 ft | 85 kts | 91° |